createdAt,value
2022-12-15T00:00:00.321Z,15.3
2022-12-15T00:05:00.310Z,14.7
2022-12-15T00:10:00.331Z,15.7
2022-12-15T00:15:00.318Z,13.3
2022-12-15T00:20:00.322Z,16.4
2022-12-15T00:25:00.319Z,13.9
2022-12-15T00:30:00.321Z,14.2
2022-12-15T00:35:00.324Z,18.0
2022-12-15T00:40:00.323Z,13.8
2022-12-15T00:45:00.312Z,22.4
2022-12-15T00:50:00.326Z,17.0
2022-12-15T00:55:00.331Z,17.4
2022-12-15T01:00:00.318Z,14.3
2022-12-15T01:05:00.465Z,16.1
2022-12-15T01:10:00.402Z,18.4
2022-12-15T01:15:00.323Z,19.9
2022-12-15T01:20:00.310Z,18.9
2022-12-15T01:25:00.318Z,16.1
2022-12-15T01:30:00.330Z,19.9
2022-12-15T01:35:00.308Z,18.0
2022-12-15T01:40:00.317Z,14.7
2022-12-15T01:45:00.323Z,16.8
2022-12-15T01:50:00.319Z,20.4
2022-12-15T01:55:00.327Z,17.5
2022-12-15T02:00:00.321Z,22.2
2022-12-15T02:05:00.321Z,21.5
2022-12-15T02:10:00.321Z,16.8
2022-12-15T02:15:00.330Z,17.0
2022-12-15T02:20:00.323Z,22.4
2022-12-15T02:25:00.331Z,20.7
2022-12-15T02:30:00.316Z,20.6
2022-12-15T02:35:00.320Z,19.4
2022-12-15T02:40:00.320Z,22.3
2022-12-15T02:45:00.319Z,17.5
2022-12-15T02:50:00.325Z,18.7
2022-12-15T02:55:00.311Z,20.1
2022-12-15T03:00:00.318Z,18.7
2022-12-15T03:05:00.322Z,21.4
2022-12-15T03:10:00.325Z,17.6
2022-12-15T03:15:00.323Z,13.5
2022-12-15T03:20:00.339Z,19.6
2022-12-15T03:25:00.320Z,18.7
2022-12-15T03:30:00.329Z,18.2
2022-12-15T03:35:00.314Z,16.5
2022-12-15T03:40:00.329Z,18.1
2022-12-15T03:45:00.314Z,16.3
2022-12-15T03:50:00.328Z,16.1
2022-12-15T03:55:00.316Z,19.2
2022-12-15T04:00:00.321Z,15.6
2022-12-15T04:05:00.319Z,16.1
2022-12-15T04:10:00.322Z,19.4
2022-12-15T04:15:00.327Z,22.7
2022-12-15T04:20:00.327Z,16.4
2022-12-15T04:25:00.344Z,20.2
2022-12-15T04:30:00.314Z,21.2
2022-12-15T04:35:00.330Z,18.5
2022-12-15T04:40:00.330Z,19.0
2022-12-15T04:45:00.322Z,18.7
2022-12-15T04:50:00.326Z,19.0
2022-12-15T04:55:00.330Z,19.3
2022-12-15T05:00:00.322Z,20.4
2022-12-15T05:05:00.320Z,20.4
2022-12-15T05:10:03.121Z,18.0
2022-12-15T05:15:00.310Z,19.4
2022-12-15T05:20:00.321Z,17.0
2022-12-15T05:25:00.317Z,22.1
2022-12-15T05:30:00.330Z,0.0
2022-12-15T05:35:00.311Z,17.7
2022-12-15T05:40:00.331Z,21.0
2022-12-15T05:45:00.327Z,15.0
2022-12-15T05:50:00.321Z,18.3
2022-12-15T05:55:00.321Z,16.5
2022-12-15T06:00:00.367Z,0.0
2022-12-15T06:05:00.380Z,19.8
2022-12-15T06:10:00.316Z,18.3
2022-12-15T06:15:00.345Z,17.3
2022-12-15T06:20:00.339Z,15.3
2022-12-15T06:25:00.323Z,16.4
2022-12-15T06:30:00.323Z,15.0
2022-12-15T06:35:00.315Z,18.4
2022-12-15T06:40:00.325Z,13.4
2022-12-15T06:45:00.310Z,17.3
2022-12-15T06:50:00.322Z,15.7
2022-12-15T06:55:00.318Z,17.8
2022-12-15T07:00:00.326Z,19.6
2022-12-15T07:05:00.322Z,24.1
2022-12-15T07:10:00.327Z,22.8
2022-12-15T07:15:00.332Z,21.5
2022-12-15T07:20:00.355Z,19.4
2022-12-15T07:25:00.320Z,17.3
2022-12-15T07:30:00.322Z,19.4
2022-12-15T07:35:00.339Z,17.9
2022-12-15T07:40:00.328Z,19.9
2022-12-15T07:45:00.328Z,18.9
2022-12-15T07:50:00.330Z,19.3
2022-12-15T07:55:00.315Z,20.5
2022-12-15T08:00:00.326Z,20.3
2022-12-15T08:05:00.321Z,22.1
2022-12-15T08:10:00.326Z,21.3
2022-12-15T08:15:00.327Z,19.8
2022-12-15T08:20:06.290Z,22.6
2022-12-15T08:25:00.320Z,23.7
2022-12-15T08:30:00.332Z,20.7
2022-12-15T08:35:00.336Z,22.5
2022-12-15T08:40:00.319Z,18.6
2022-12-15T08:45:00.323Z,20.0
2022-12-15T08:50:00.326Z,19.4
2022-12-15T08:55:00.324Z,20.0
2022-12-15T09:00:00.331Z,19.9
2022-12-15T09:05:00.317Z,23.6
2022-12-15T09:10:00.318Z,25.6
2022-12-15T09:15:00.328Z,23.1
2022-12-15T09:20:00.333Z,22.6
2022-12-15T09:25:00.349Z,19.6
2022-12-15T09:30:00.311Z,20.5
2022-12-15T09:35:00.327Z,24.5
2022-12-15T09:40:00.326Z,25.8
2022-12-15T09:45:00.345Z,19.1
2022-12-15T09:50:00.329Z,19.2
2022-12-15T09:55:00.388Z,20.1
2022-12-15T10:00:00.378Z,24.0
2022-12-15T10:05:00.348Z,21.9
2022-12-15T10:10:00.377Z,24.5
2022-12-15T10:15:00.359Z,24.0
2022-12-15T10:20:00.346Z,23.2
2022-12-15T10:25:09.690Z,20.6
2022-12-15T10:30:00.500Z,23.4
2022-12-15T10:35:00.437Z,23.3
2022-12-15T10:40:00.355Z,20.2
2022-12-15T10:45:00.351Z,22.8
2022-12-15T10:50:00.341Z,23.2
2022-12-15T10:55:00.334Z,23.3
2022-12-15T11:00:00.355Z,22.1
2022-12-15T11:05:00.323Z,18.3
2022-12-15T11:10:00.344Z,21.3
2022-12-15T11:15:00.321Z,16.4
2022-12-15T11:20:03.028Z,20.0
2022-12-15T11:25:00.328Z,21.1
2022-12-15T11:30:00.326Z,23.5
2022-12-15T11:35:00.336Z,16.5
2022-12-15T11:40:00.325Z,17.9
2022-12-15T11:45:00.324Z,21.5
2022-12-15T11:50:00.322Z,16.1
2022-12-15T11:55:00.322Z,18.6
2022-12-15T12:00:00.345Z,22.0
2022-12-15T12:05:00.356Z,19.9
2022-12-15T12:10:00.315Z,18.5
2022-12-15T12:15:00.319Z,15.9
2022-12-15T12:20:00.327Z,19.2
2022-12-15T12:25:00.315Z,18.2
2022-12-15T12:30:00.340Z,17.0
2022-12-15T12:35:31.213Z,17.6
2022-12-15T12:40:00.332Z,22.2
2022-12-15T12:45:00.334Z,19.9
2022-12-15T12:50:00.328Z,18.0
2022-12-15T12:55:00.327Z,20.0
2022-12-15T13:00:00.331Z,20.5
2022-12-15T13:05:00.319Z,20.4
2022-12-15T13:10:00.333Z,20.2
2022-12-15T13:15:00.333Z,18.0
2022-12-15T13:20:00.352Z,20.0
2022-12-15T13:25:00.332Z,23.6
2022-12-15T13:30:00.340Z,21.1
2022-12-15T13:35:00.325Z,24.8
2022-12-15T13:40:00.328Z,25.1
2022-12-15T13:45:00.319Z,23.6
2022-12-15T13:50:02.186Z,24.2
2022-12-15T13:55:00.318Z,24.6
2022-12-15T14:00:00.335Z,20.2
2022-12-15T14:05:00.326Z,30.8
2022-12-15T14:10:00.312Z,26.4
2022-12-15T14:15:00.328Z,25.4
2022-12-15T14:20:00.323Z,26.5
2022-12-15T14:25:00.323Z,27.4
2022-12-15T14:30:00.960Z,22.2
2022-12-15T14:35:00.324Z,28.2
2022-12-15T14:40:00.327Z,29.6
2022-12-15T14:45:00.335Z,32.5
2022-12-15T14:50:00.354Z,26.5
2022-12-15T14:55:00.318Z,30.8
2022-12-15T15:00:00.329Z,29.0
2022-12-15T15:05:00.327Z,26.1
2022-12-15T15:10:00.339Z,30.0
2022-12-15T15:15:00.323Z,30.3
2022-12-15T15:20:00.325Z,29.5
2022-12-15T15:25:00.339Z,34.3
2022-12-15T15:30:00.329Z,29.4
2022-12-15T15:35:00.323Z,32.5
2022-12-15T15:40:00.322Z,26.2
2022-12-15T15:45:00.332Z,31.1
2022-12-15T15:50:00.325Z,31.0
2022-12-15T15:55:00.322Z,34.7
2022-12-15T16:00:00.327Z,31.4
2022-12-15T16:05:00.324Z,32.7
2022-12-15T16:10:00.336Z,35.5
2022-12-15T16:15:00.322Z,37.5
2022-12-15T16:20:00.321Z,35.7
2022-12-15T16:25:00.321Z,32.4
2022-12-15T16:30:00.319Z,37.4
2022-12-15T16:35:00.334Z,38.3
2022-12-15T16:40:00.450Z,46.5
2022-12-15T16:50:00.407Z,41.1
2022-12-15T16:55:00.405Z,36.1
2022-12-15T17:00:00.406Z,43.5
2022-12-15T17:05:00.409Z,33.4
2022-12-15T17:10:00.427Z,37.0
2022-12-15T17:15:00.409Z,36.3
2022-12-15T17:20:29.820Z,38.4
2022-12-15T17:25:00.425Z,42.1
2022-12-15T17:30:00.454Z,40.4
2022-12-15T17:35:00.408Z,36.1
2022-12-15T17:40:00.410Z,39.6
2022-12-15T17:45:00.462Z,35.6
2022-12-15T17:50:00.390Z,48.7
2022-12-15T17:55:00.405Z,45.8
2022-12-15T18:00:00.511Z,46.0
2022-12-15T18:05:00.409Z,46.2
2022-12-15T18:10:00.475Z,43.1
2022-12-15T18:15:00.396Z,40.2
2022-12-15T18:20:00.522Z,41.7
2022-12-15T18:25:00.410Z,44.3
2022-12-15T18:30:00.524Z,40.2
2022-12-15T18:35:00.410Z,39.2
2022-12-15T18:40:04.526Z,39.7
2022-12-15T18:45:00.486Z,39.2
2022-12-15T18:50:00.403Z,40.2
2022-12-15T18:55:00.407Z,38.4
2022-12-15T19:00:00.406Z,36.4
2022-12-15T19:05:00.411Z,40.6
2022-12-15T19:10:00.404Z,33.4
2022-12-15T19:15:00.404Z,34.4
2022-12-15T19:20:00.391Z,39.7
2022-12-15T19:25:00.417Z,45.5
2022-12-15T19:30:00.418Z,42.9
2022-12-15T19:35:00.394Z,46.6
2022-12-15T19:40:00.405Z,43.0
2022-12-15T19:45:00.412Z,41.3
2022-12-15T19:50:00.416Z,41.5
2022-12-15T19:55:00.389Z,39.5
2022-12-15T20:00:00.453Z,39.5
2022-12-15T20:05:00.420Z,42.9
2022-12-15T20:10:00.424Z,45.9
2022-12-15T20:15:00.405Z,43.4
2022-12-15T20:20:00.420Z,41.5
2022-12-15T20:25:00.391Z,38.4
2022-12-15T20:30:00.412Z,32.5
2022-12-15T20:35:00.411Z,34.8
2022-12-15T20:40:00.403Z,36.9
2022-12-15T20:45:00.392Z,41.7
2022-12-15T20:50:00.418Z,40.6
2022-12-15T20:55:00.402Z,47.7
2022-12-15T21:00:00.410Z,35.2
2022-12-15T21:05:00.407Z,45.9
2022-12-15T21:10:00.415Z,39.2
2022-12-15T21:15:00.404Z,37.3
2022-12-15T21:20:00.402Z,0.0
2022-12-15T21:25:00.409Z,39.5
2022-12-15T21:30:00.411Z,34.7
2022-12-15T21:35:00.410Z,35.9
2022-12-15T21:40:00.407Z,38.6
2022-12-15T21:45:00.433Z,35.8
2022-12-15T21:50:00.402Z,39.5
2022-12-15T21:55:00.404Z,37.3
2022-12-15T22:00:00.407Z,41.6
2022-12-15T22:05:00.405Z,35.0
2022-12-15T22:10:00.404Z,38.7
2022-12-15T22:15:00.406Z,38.6
2022-12-15T22:20:00.413Z,40.6
2022-12-15T22:25:00.402Z,39.7
2022-12-15T22:30:00.408Z,36.5
2022-12-15T22:35:00.400Z,43.7
2022-12-15T22:40:00.408Z,34.1
2022-12-15T22:45:00.395Z,40.3
2022-12-15T22:50:00.407Z,32.5
2022-12-15T22:55:00.404Z,35.8
2022-12-15T23:00:00.562Z,34.2
2022-12-15T23:05:00.404Z,36.2
2022-12-15T23:10:00.415Z,31.2
2022-12-15T23:15:00.395Z,35.8
2022-12-15T23:20:00.405Z,32.8
2022-12-15T23:25:00.405Z,36.1
2022-12-15T23:30:00.409Z,26.6
2022-12-15T23:35:00.405Z,35.4
2022-12-15T23:40:00.404Z,34.0
2022-12-15T23:45:00.519Z,33.7
2022-12-15T23:50:00.411Z,38.7
2022-12-15T23:55:00.408Z,35.0
